ADDS TAF Board (Experimental) INFO Settings
IDs: Format: Expanded Condensed

KPHX - Phoenix/Sky Harbor, AZ, US

Issued at 0025 UTC 01 Aug 2015
Updated at: 0127 UTC 01 Aug 2015
Time0119Z 01/02Z 01/03Z 01/04Z 01/05Z 01/06Z 01/07Z 01/08Z 01/09Z 01/10Z 01/11Z 01/12Z 01/13Z 01/14Z
Type OBS PRVL PRVL PRVL PRVL PRVL PRVL PRVL PRVL PRVL PRVL PRVL PRVL PRVL
VIS 10 >6 >6 >6 >6 >6 >6 >6 >6 >6 >6 >6 >6 >6
CIG 110 150 150 150 150 150 250 250 250 250 250 250 250 250
Cover OVC BKN BKN BKN BKN BKN BKN BKN BKN BKN BKN BKN BKN BKN
FltCat VFR VFR VFR VFR VFR VFR VFR VFR VFR VFR VFR VFR VFR VFR
WX -RA VCTS VCTS VCTS VCTS VCTS -- -- -- -- -- -- -- --
WDir 210 160 160 160 160 160 110 110 110 110 110 110 110 110
WSpd 11 11 11 11 11 11 5 5 5 5 5 5 5 5
WGst -- -- -- -- -- -- -- -- -- -- -- -- -- --
R07/25
XWnd -10 -10 -10 -10 -10 -10 -2 -2 -2 -2 -2 -2 -2 -2
HWnd -5 4 4 4 4 4 5 5 5 5 5 5 5 5
R08/26
XWnd -10 -10 -10 -10 -10 -10 -2 -2 -2 -2 -2 -2 -2 -2
HWnd -5 4 4 4 4 4 5 5 5 5 5 5 5 5

NOTE: TEMPO conditions in [brackets]. Keep in mind TEMPO conditions might be better (lower impact) than prevailing conditions.

Raw TAF
KPHX 010025Z 0100/0124 28015KT P6SM TSRA SCT050CB BKN100 BKN150
  TEMPO 0100/0102 VRB15G25KT 1SM +TSRA BKN040CB BKN080
  FM010200 16011KT P6SM VCTS SCT080CB BKN150 BKN250
  FM010700 11005KT P6SM FEW080 SCT120 BKN250
  FM012000 26006KT P6SM SCT080 SCT150 SCT250


Raw METAR
KPHX 010119Z 21011KT 10SM -RA FEW080 BKN110 BKN160 OVC250 27/22 A2994 RMK AO2 TSE13 PRESFR P0003 T02670222
KPHX 010051Z 16012KT 5SM TSRA BKN041 BKN080CB BKN110 BKN160 OVC250 26/22 A2997
KPHX 010036Z 17013KT 2SM +TSRA BKN038 BKN095CB BKN110 BKN160 OVC250 26/22 A2996
KPHX 010022Z 20017KT 2SM +TSRA BKN038 BKN095CB BKN110 BKN160 OVC250 26/23 A2994
KPHX 010010Z 23006KT 3/4SM +TSRA SCT050 BKN100CB OVC110 28/21 A2997 RMK AO2 FRQ LTGCGICCA OHD AND S-SW TS OHD AND S-SW MOV NW P0013 T02780211 RVRNO
KPHX 010006Z 24005G22KT 1 1/2SM +TSRA BKN100CB BKN110 OVC160 28/21 A2997 RMK AO2 PRESRR FRQ LTGCGIC OHD AND S-SW TS OHD AND S-SW MOV NW P0005 T02830206
KPHX 312351Z 27007KT 250V310 6SM TSRA FEW047 BKN100CB BKN160 OVC250 31/22 A2991 RMK AO2 PK WND 03028/2255 RAB2254E14B35 PRESRR SLP109 OCNL LTGIC OHD AND SE-SW TS OHD SE-SW MOV NW P0001 60001 T03110222 10433 20311 53015
KPHX 312251Z 03023G30KT 10SM TS FEW018 BKN100CB BKN160 BKN250 36/16 A2985 RMK AO2 PK WND 05031/2231 TSB43 SLP086 OCNL LTGIC SW-W TS SW-W MOV NW CB DSNT N-SE AND NW-N BLDU S-W T03610161 $
KPHX 312243Z 04020G29KT 10SM TS BKN110CB BKN160 BKN250 36/17 A2985 RMK AO2 PK WND 05031/2231 TSB43 OCNL LTGIC SW TS SW MOV NW CB DSNT N-SE SW AND NW-N BLDU S-W T03610167 $

METAR Board
Radar Display
Forecast Discussion

TAF Board Legend

Potential Impact
Threat None Slight Moderate High
Visibility (sm) ≥5.1 5.1>X≥3 3>X≥1 <1
Ceiling (100 ft) ≥30.1 30.1>X≥10 10>X≥5 <5
Wind Speed (kt) <10 10≤X<20 20≤X<30 ≥30
Wind Gust (kt) <15 15≤X<25 25≤X<35 ≥35
Weather No Wx Reported VCTS,-TS,-FZRA,SN TS,FZRA +TS,+FZRA,+SN